Time;durP1;ratioP1;P1;durP2;ratioP2;P2;SDS_P1;SDS_P2;PMS_P1;PMS_P2;Temp;Humidity;BMP_temperature;BMP_pressure;BME280_temperature;BME280_humidity;BME280_pressure;Samples;Min_cycle;Max_cycle;Signal;HPM_P1;HPM_P2
2020/12/03 00:02:25;;;;;;;13.95;6.10;;;3.00;99.90;;;;;;5063434;28;20060;-79
2020/12/03 00:04:50;;;;;;;13.07;6.63;;;3.00;99.90;;;;;;5063596;28;20039;-78
2020/12/03 00:07:16;;;;;;;17.95;6.97;;;3.00;99.90;;;;;;5063558;28;20048;-79
2020/12/03 00:09:45;;;;;;;12.38;6.28;;;3.00;99.90;;;;;;5064716;28;20021;-81
2020/12/03 00:12:12;;;;;;;23.42;6.20;;;3.00;99.90;;;;;;5063635;28;20056;-79
2020/12/03 00:14:37;;;;;;;12.77;6.47;;;3.00;99.90;;;;;;5064190;28;20021;-79
2020/12/03 00:17:03;;;;;;;13.70;6.22;;;3.00;99.90;;;;;;5067541;28;20027;-77
2020/12/03 00:19:28;;;;;;;12.13;6.72;;;3.00;99.90;;;;;;5068758;28;20028;-77
2020/12/03 00:22:01;;;;;;;11.95;6.35;;;2.90;99.90;;;;;;5063747;28;20075;-78
2020/12/03 00:24:31;;;;;;;16.63;5.85;;;3.00;99.90;;;;;;5065321;28;20036;-78
2020/12/03 00:27:06;;;;;;;13.73;6.72;;;3.00;99.90;;;;;;5065199;28;20041;-80
2020/12/03 00:29:32;;;;;;;14.77;7.50;;;3.00;99.90;;;;;;5063847;28;20028;-80
2020/12/03 00:31:57;;;;;;;11.88;5.88;;;3.00;99.90;;;;;;5065178;28;20025;-79
2020/12/03 00:34:23;;;;;;;14.25;5.28;;;3.00;99.90;;;;;;5063649;28;20044;-79
2020/12/03 00:36:48;;;;;;;19.83;7.40;;;3.00;99.90;;;;;;5065052;28;20071;-79
2020/12/03 00:39:15;;;;;;;10.48;5.25;;;3.10;99.90;;;;;;5063721;28;20462;-77
2020/12/03 00:41:51;;;;;;;13.98;7.85;;;3.00;99.90;;;;;;5063767;28;20025;-79
2020/12/03 00:44:18;;;;;;;13.85;6.47;;;3.00;99.90;;;;;;5063725;28;20033;-79
2020/12/03 00:46:44;;;;;;;16.02;7.53;;;3.00;99.90;;;;;;5063698;28;20025;-80
2020/12/03 00:49:09;;;;;;;15.13;5.47;;;3.00;99.90;;;;;;5067156;28;20515;-77
2020/12/03 00:51:35;;;;;;;16.02;6.28;;;3.00;99.90;;;;;;5067675;28;20029;-78
2020/12/03 00:54:01;;;;;;;18.20;6.88;;;3.00;99.90;;;;;;5068925;28;20025;-78
2020/12/03 00:56:27;;;;;;;11.85;5.13;;;3.00;99.90;;;;;;5068888;28;20108;-79
2020/12/03 00:58:52;;;;;;;13.95;5.85;;;3.00;99.90;;;;;;5068855;28;20068;-80
2020/12/03 01:01:19;;;;;;;13.95;7.47;;;3.00;99.90;;;;;;5067712;28;20092;-80
2020/12/03 01:03:45;;;;;;;11.02;6.68;;;3.00;99.90;;;;;;5067062;28;20123;-79
2020/12/03 01:06:11;;;;;;;18.40;5.57;;;3.00;99.90;;;;;;5068747;28;20040;-79
2020/12/03 01:08:37;;;;;;;15.30;5.53;;;3.00;99.90;;;;;;5068979;28;20497;-77
2020/12/03 01:11:03;;;;;;;18.92;6.60;;;3.00;99.90;;;;;;5068612;28;20081;-79
2020/12/03 01:13:28;;;;;;;18.95;7.30;;;3.00;99.90;;;;;;5067297;28;20021;-78
2020/12/03 01:15:56;;;;;;;14.88;7.10;;;3.10;99.90;;;;;;5067327;28;20048;-79
2020/12/03 01:18:22;;;;;;;14.93;6.65;;;3.00;99.90;;;;;;5067217;28;20487;-79
2020/12/03 01:20:47;;;;;;;13.85;7.15;;;3.00;99.90;;;;;;5067159;28;20021;-79
2020/12/03 01:23:13;;;;;;;16.98;7.55;;;3.10;99.90;;;;;;5067208;28;20104;-79
2020/12/03 01:25:39;;;;;;;15.05;5.47;;;3.10;99.90;;;;;;5067166;28;20036;-79
2020/12/03 01:28:05;;;;;;;16.35;7.18;;;3.10;99.90;;;;;;5067136;28;20017;-80
2020/12/03 01:30:30;;;;;;;20.13;7.28;;;3.10;99.90;;;;;;5068328;28;20431;-78
2020/12/03 01:32:56;;;;;;;19.52;7.75;;;3.10;99.90;;;;;;5068176;28;20032;-80
2020/12/03 01:35:21;;;;;;;12.25;7.20;;;3.10;99.90;;;;;;5067057;28;20029;-80
2020/12/03 01:37:51;;;;;;;19.90;7.20;;;3.10;99.90;;;;;;5066800;28;20032;-79
2020/12/03 01:40:21;;;;;;;13.40;6.55;;;3.10;99.90;;;;;;5066800;28;20028;-79
2020/12/03 01:42:47;;;;;;;13.77;6.18;;;3.10;99.90;;;;;;5066873;28;20052;-80
2020/12/03 01:45:47;;;;;;;16.88;6.88;;;3.10;99.90;;;;;;5049892;28;20063;-80
2020/12/03 01:48:27;;;;;;;16.42;7.90;;;3.10;99.90;;;;;;5066794;28;20028;-78
2020/12/03 01:50:53;;;;;;;12.95;7.10;;;3.10;99.90;;;;;;5068006;28;20033;-79
2020/12/03 01:53:20;;;;;;;16.55;6.22;;;3.10;99.90;;;;;;5066458;28;20025;-78
2020/12/03 01:55:48;;;;;;;17.00;6.70;;;3.10;99.90;;;;;;5066388;28;20408;-78
2020/12/03 01:58:43;;;;;;;12.55;5.93;;;3.10;99.90;;;;;;5067943;28;20025;-80
2020/12/03 02:01:10;;;;;;;14.25;6.22;;;3.10;99.90;;;;;;5064501;28;20029;-80
2020/12/03 02:03:47;;;;;;;10.88;6.63;;;3.10;99.90;;;;;;5066015;28;20047;-82
2020/12/03 02:06:23;;;;;;;15.25;7.15;;;3.10;99.90;;;;;;5066291;28;20025;-81
2020/12/03 02:08:49;;;;;;;12.15;5.80;;;3.10;99.90;;;;;;5066207;28;20415;-77
2020/12/03 02:11:16;;;;;;;14.27;7.32;;;3.10;99.90;;;;;;5066230;28;20089;-79
2020/12/03 02:13:53;;;;;;;18.60;6.93;;;3.10;99.90;;;;;;5066389;28;20028;-80
2020/12/03 02:16:18;;;;;;;13.60;7.68;;;3.10;99.90;;;;;;5049135;28;20029;-80
2020/12/03 02:18:47;;;;;;;18.77;7.30;;;3.10;99.90;;;;;;5047234;28;20136;-78
2020/12/03 02:21:14;;;;;;;13.82;7.32;;;3.10;99.90;;;;;;5047364;28;20027;-81
2020/12/03 02:23:40;;;;;;;19.58;8.30;;;3.10;99.90;;;;;;5046015;28;20126;-79
2020/12/03 02:26:06;;;;;;;15.05;6.30;;;3.10;99.90;;;;;;5045980;28;20398;-78
2020/12/03 02:28:32;;;;;;;13.48;6.68;;;3.10;99.90;;;;;;5045956;28;20028;-79
2020/12/03 02:30:57;;;;;;;13.15;5.90;;;3.10;99.90;;;;;;5045937;28;20025;-79
2020/12/03 02:33:23;;;;;;;13.85;7.00;;;3.10;99.90;;;;;;5045824;28;20087;-79
2020/12/03 02:35:48;;;;;;;15.95;6.10;;;3.10;99.90;;;;;;5045657;28;20405;-79
2020/12/03 02:38:14;;;;;;;8.82;5.20;;;3.10;99.90;;;;;;5045692;28;20018;-78
2020/12/03 02:40:40;;;;;;;16.27;6.35;;;3.10;99.90;;;;;;5045901;28;20018;-78
2020/12/03 02:43:06;;;;;;;12.30;6.82;;;3.00;99.90;;;;;;5045906;28;20029;-80
2020/12/03 02:45:31;;;;;;;21.15;8.00;;;3.00;99.90;;;;;;5045658;28;20036;-80
2020/12/03 02:47:57;;;;;;;12.10;7.25;;;3.00;99.90;;;;;;5045779;28;20056;-77
2020/12/03 02:50:22;;;;;;;18.13;6.35;;;3.00;99.90;;;;;;5045498;28;20021;-79
2020/12/03 02:52:48;;;;;;;13.70;4.70;;;3.00;99.90;;;;;;5046686;28;20032;-77
2020/12/03 02:55:14;;;;;;;14.60;6.00;;;2.90;99.90;;;;;;5045333;28;20466;-79
2020/12/03 02:57:39;;;;;;;19.27;8.07;;;2.90;99.90;;;;;;5046561;28;20048;-79
2020/12/03 03:00:05;;;;;;;18.30;6.88;;;2.90;99.90;;;;;;5045477;28;20120;-79
2020/12/03 03:02:31;;;;;;;17.55;7.32;;;2.90;99.90;;;;;;5045142;28;20433;-76
2020/12/03 03:04:57;;;;;;;16.23;7.78;;;2.90;99.90;;;;;;5046529;28;20037;-79
2020/12/03 03:07:22;;;;;;;20.48;8.05;;;2.90;99.90;;;;;;5046465;28;20025;-78
2020/12/03 03:09:48;;;;;;;17.65;7.28;;;2.90;99.90;;;;;;5046291;28;20025;-77
2020/12/03 03:12:14;;;;;;;18.60;7.53;;;2.90;99.90;;;;;;5044803;28;20377;-77
2020/12/03 03:14:39;;;;;;;14.18;7.32;;;2.90;99.90;;;;;;5045261;28;20089;-78
2020/12/03 03:17:05;;;;;;;18.42;7.63;;;2.90;99.90;;;;;;5045197;28;20017;-79
2020/12/03 03:19:30;;;;;;;12.75;6.85;;;2.90;99.90;;;;;;5045242;28;20029;-77
2020/12/03 03:21:56;;;;;;;12.48;7.53;;;2.90;99.90;;;;;;5045823;28;20018;-79
2020/12/03 03:24:21;;;;;;;19.13;8.05;;;2.90;99.90;;;;;;5046222;28;20155;-77
2020/12/03 03:26:47;;;;;;;15.02;7.47;;;3.00;99.90;;;;;;5044550;28;20022;-79
2020/12/03 03:29:13;;;;;;;16.00;6.95;;;2.90;99.90;;;;;;5046314;28;20032;-77
2020/12/03 03:31:38;;;;;;;17.90;7.85;;;3.00;99.90;;;;;;5045180;28;20489;-78
2020/12/03 03:34:05;;;;;;;19.15;8.23;;;3.00;99.90;;;;;;5046213;28;20029;-79
2020/12/03 03:36:31;;;;;;;13.40;6.13;;;3.00;99.90;;;;;;5044975;28;20035;-77
2020/12/03 03:38:57;;;;;;;12.77;6.10;;;3.00;99.90;;;;;;5045954;28;20025;-78
2020/12/03 03:41:23;;;;;;;17.17;8.07;;;3.00;99.90;;;;;;5044590;28;20030;-78
2020/12/03 03:43:50;;;;;;;22.63;8.40;;;3.00;99.90;;;;;;5044488;28;20470;-79
2020/12/03 03:46:16;;;;;;;18.38;7.50;;;3.10;99.90;;;;;;5046089;28;20031;-79
2020/12/03 03:48:42;;;;;;;17.75;7.05;;;3.00;99.90;;;;;;5044453;28;20028;-78
2020/12/03 03:51:08;;;;;;;18.48;7.32;;;3.00;99.90;;;;;;5045929;28;20025;-81
2020/12/03 03:53:33;;;;;;;14.48;5.45;;;3.00;99.90;;;;;;5044417;28;20022;-78
2020/12/03 03:55:59;;;;;;;15.85;6.95;;;3.00;99.90;;;;;;5045808;28;20037;-78
2020/12/03 03:58:25;;;;;;;14.60;6.45;;;2.90;99.90;;;;;;5044412;28;20018;-78
2020/12/03 04:00:50;;;;;;;18.95;9.00;;;2.90;99.90;;;;;;5045766;28;20029;-78
2020/12/03 04:03:19;;;;;;;21.42;8.25;;;2.90;99.90;;;;;;5043914;28;20053;-79
2020/12/03 04:05:48;;;;;;;18.42;8.88;;;2.90;99.90;;;;;;5044320;28;20033;-78
2020/12/03 04:08:15;;;;;;;21.02;7.22;;;2.90;99.90;;;;;;5044111;28;20071;-79
2020/12/03 04:10:42;;;;;;;24.02;8.27;;;2.90;99.90;;;;;;5044099;28;20023;-80
2020/12/03 04:13:08;;;;;;;12.68;7.28;;;2.90;99.90;;;;;;5044109;28;20475;-80
2020/12/03 04:15:34;;;;;;;9.70;6.25;;;2.90;99.90;;;;;;5045736;28;20041;-78
2020/12/03 04:17:59;;;;;;;18.50;9.40;;;2.90;99.90;;;;;;5046900;28;20029;-78
2020/12/03 04:20:25;;;;;;;17.48;7.60;;;2.90;99.90;;;;;;5046606;28;20021;-78
2020/12/03 04:22:51;;;;;;;20.50;8.05;;;2.90;99.90;;;;;;5045874;28;20021;-79
2020/12/03 04:25:16;;;;;;;20.08;7.07;;;2.90;99.90;;;;;;5043740;28;20029;-77
2020/12/03 04:27:42;;;;;;;17.85;7.45;;;2.90;99.90;;;;;;5045328;28;20032;-79
2020/12/03 04:30:10;;;;;;;15.23;6.65;;;2.90;99.90;;;;;;5044034;28;20458;-78
2020/12/03 04:32:36;;;;;;;13.95;7.32;;;2.90;99.90;;;;;;5043940;28;20530;-78
2020/12/03 04:35:02;;;;;;;16.63;7.07;;;2.90;99.90;;;;;;5044033;28;20037;-77
2020/12/03 04:37:28;;;;;;;15.90;8.18;;;2.90;99.90;;;;;;5044033;28;20474;-78
2020/12/03 04:39:54;;;;;;;14.50;7.53;;;2.90;99.90;;;;;;5045107;28;20018;-78
2020/12/03 04:42:24;;;;;;;15.98;7.15;;;2.90;99.90;;;;;;5043919;28;20017;-79
2020/12/03 04:44:53;;;;;;;12.00;6.45;;;3.00;99.90;;;;;;5043880;28;20056;-77
2020/12/03 04:47:40;;;;;;;17.50;6.45;;;2.90;99.90;;;;;;5044965;28;20532;-78
2020/12/03 04:50:35;;;;;;;14.88;7.13;;;2.90;99.90;;;;;;5043836;28;20017;-79
2020/12/03 04:53:35;;;;;;;11.18;5.75;;;3.00;99.90;;;;;;5043849;28;20021;-79
2020/12/03 04:56:10;;;;;;;13.77;7.00;;;3.00;99.90;;;;;;5043777;28;20021;-77
2020/12/03 04:58:39;;;;;;;28.38;8.82;;;3.00;99.90;;;;;;5045270;28;20052;-79
2020/12/03 05:01:08;;;;;;;16.50;7.47;;;3.00;99.90;;;;;;5043781;28;20017;-82
2020/12/03 05:03:55;;;;;;;21.85;8.32;;;3.00;99.90;;;;;;5043540;28;20049;-81
2020/12/03 05:06:43;;;;;;;19.75;7.82;;;3.00;99.90;;;;;;5043756;28;20048;-80
2020/12/03 05:09:54;;;;;;;16.13;8.13;;;3.00;99.90;;;;;;5043791;28;20029;-78
2020/12/03 05:12:36;;;;;;;15.60;7.07;;;3.00;99.90;;;;;;5043665;28;20028;-80
2020/12/03 05:15:17;;;;;;;13.32;7.50;;;3.00;99.90;;;;;;5043975;28;20060;-80
2020/12/03 05:18:01;;;;;;;10.85;6.10;;;3.00;99.90;;;;;;5043243;28;20026;-80
2020/12/03 05:20:48;;;;;;;19.23;8.10;;;2.90;99.90;;;;;;5043493;28;20026;-81
2020/12/03 05:23:36;;;;;;;14.40;7.20;;;3.00;99.90;;;;;;5043358;28;20040;-80
2020/12/03 05:26:21;;;;;;;14.25;6.25;;;3.00;99.90;;;;;;5043797;28;20042;-79
2020/12/03 05:29:01;;;;;;;10.77;6.00;;;3.00;99.90;;;;;;5043081;28;20021;-79
2020/12/03 05:31:41;;;;;;;16.70;8.20;;;3.00;99.90;;;;;;5043622;28;20056;-80
2020/12/03 05:34:18;;;;;;;15.65;7.20;;;3.10;99.90;;;;;;5044479;28;20028;-80
2020/12/03 05:37:03;;;;;;;12.27;5.97;;;3.10;99.90;;;;;;5048338;28;20037;-80
2020/12/03 05:39:31;;;;;;;;;;;3.10;99.90;;;;;;5048723;28;20043;-77
2020/12/03 05:42:01;;;;;;;12.73;6.35;;;3.10;99.90;;;;;;5047775;28;19912;-79
2020/12/03 05:44:38;;;;;;;17.92;7.72;;;3.10;99.90;;;;;;5048237;28;20048;-78
2020/12/03 05:47:16;;;;;;;17.35;7.82;;;3.10;99.90;;;;;;5047201;28;20040;-81
2020/12/03 05:49:42;;;;;;;19.55;6.72;;;3.20;99.90;;;;;;5047054;28;20049;-79
2020/12/03 05:52:23;;;;;;;16.33;6.20;;;3.10;99.90;;;;;;5048014;28;20465;-80
2020/12/03 05:54:59;;;;;;;17.08;8.02;;;3.10;99.90;;;;;;5047819;28;20076;-79
2020/12/03 05:57:44;;;;;;;13.15;6.53;;;3.20;99.90;;;;;;5046799;28;20030;-81
2020/12/03 06:00:13;;;;;;;17.98;7.07;;;3.20;99.90;;;;;;5046684;28;20476;-80
2020/12/03 06:03:07;;;;;;;16.00;7.55;;;3.20;99.90;;;;;;5047692;28;20041;-81
2020/12/03 06:06:05;;;;;;;15.68;7.43;;;3.20;99.90;;;;;;5045152;28;20113;-79
2020/12/03 06:08:47;;;;;;;15.98;7.88;;;3.20;99.90;;;;;;5046166;28;20462;-79
2020/12/03 06:11:54;;;;;;;11.75;6.53;;;3.20;99.90;;;;;;5047585;28;20026;-80
2020/12/03 06:14:36;;;;;;;15.10;7.15;;;3.20;99.90;;;;;;5031766;28;20025;-81
2020/12/03 06:17:39;;;;;;;23.08;8.45;;;3.20;99.90;;;;;;5047228;28;20029;-80
2020/12/03 06:20:38;;;;;;;16.60;6.72;;;3.20;99.90;;;;;;5046015;28;20037;-79
2020/12/03 06:23:27;;;;;;;21.10;7.78;;;3.20;99.90;;;;;;5046655;28;20474;-81
2020/12/03 06:26:08;;;;;;;13.88;6.57;;;3.20;99.90;;;;;;5047104;28;20034;-80
2020/12/03 06:29:18;;;;;;;22.05;8.05;;;3.20;99.90;;;;;;5046074;28;20037;-80
2020/12/03 06:32:04;;;;;;;24.67;7.38;;;3.20;99.90;;;;;;5045951;28;20029;-81
2020/12/03 06:35:09;;;;;;;17.17;6.97;;;3.20;99.90;;;;;;5047224;28;20091;-82
2020/12/03 06:37:46;;;;;;;12.63;6.00;;;3.20;99.90;;;;;;5045696;28;20088;-81
2020/12/03 06:40:24;;;;;;;13.93;6.72;;;3.30;99.90;;;;;;5045715;28;20034;-80
2020/12/03 06:43:05;;;;;;;15.65;7.57;;;3.30;99.90;;;;;;5045600;28;20026;-82
2020/12/03 06:46:28;;;;;;;16.88;8.05;;;3.30;99.90;;;;;;5045382;28;20033;-86
2020/12/03 06:48:56;;;;;;;18.02;7.13;;;3.30;99.90;;;;;;5044438;28;20075;-85
2020/12/03 06:51:24;;;;;;;15.70;7.47;;;3.30;99.90;;;;;;5045057;28;20021;-79
2020/12/03 06:54:02;;;;;;;15.70;7.70;;;3.30;99.90;;;;;;5048008;28;20033;-81
2020/12/03 06:56:57;;;;;;;16.33;6.55;;;3.30;99.90;;;;;;5049408;28;20059;-81
2020/12/03 06:59:29;;;;;;;15.70;7.38;;;3.30;99.90;;;;;;5044495;28;20037;-79
2020/12/03 07:02:10;;;;;;;12.30;5.93;;;3.30;99.90;;;;;;5045303;28;20014;-78
2020/12/03 07:05:08;;;;;;;14.73;6.13;;;3.30;99.90;;;;;;5044556;28;20140;-78
2020/12/03 07:07:48;;;;;;;15.20;7.18;;;3.30;99.90;;;;;;5044515;28;20032;-78
2020/12/03 07:10:34;;;;;;;20.25;7.35;;;3.30;99.90;;;;;;5044390;28;20377;-79
2020/12/03 07:13:21;;;;;;;10.55;5.30;;;3.30;99.90;;;;;;5045468;28;20129;-79
2020/12/03 07:16:14;;;;;;;12.32;5.78;;;3.20;99.90;;;;;;5045568;28;20458;-80
2020/12/03 07:19:17;;;;;;;11.40;5.55;;;3.20;99.90;;;;;;5044696;28;20021;-81
2020/12/03 07:22:04;;;;;;;17.85;8.00;;;3.20;99.90;;;;;;5044149;28;20054;-85
2020/12/03 07:24:32;;;;;;;20.13;8.90;;;3.20;99.90;;;;;;5044529;28;20056;-83
2020/12/03 07:27:17;;;;;;;12.27;5.88;;;3.20;99.90;;;;;;5056676;28;20099;-87
2020/12/03 07:30:05;;;;;;;19.58;9.05;;;3.20;99.90;;;;;;5064467;28;20055;-84
2020/12/03 07:32:31;;;;;;;11.27;4.68;;;3.20;99.90;;;;;;5062825;28;20029;-86
2020/12/03 07:35:25;;;;;;;16.95;8.10;;;3.10;99.90;;;;;;5062508;28;20017;-85
2020/12/03 07:38:04;;;;;;;11.57;3.47;;;3.10;99.90;;;;;;5063020;28;20381;-84
2020/12/03 07:40:34;;;;;;;20.73;7.93;;;3.10;99.90;;;;;;5063434;28;20123;-84
2020/12/03 07:43:16;;;;;;;20.08;7.97;;;3.10;99.90;;;;;;5064686;28;20028;-85
2020/12/03 07:45:46;;;;;;;18.35;8.15;;;3.10;99.90;;;;;;5063661;28;20037;-82
2020/12/03 07:48:17;;;;;;;18.98;7.95;;;3.10;99.90;;;;;;5062937;28;20033;-82
2020/12/03 07:50:47;;;;;;;18.35;7.75;;;3.10;99.90;;;;;;5063710;28;20044;-82
2020/12/03 07:53:20;;;;;;;15.48;7.20;;;3.10;99.90;;;;;;5063525;28;20017;-82
2020/12/03 07:55:45;;;;;;;14.73;7.40;;;3.10;99.90;;;;;;5063775;28;20021;-83
2020/12/03 07:58:32;;;;;;;17.13;7.88;;;3.10;99.90;;;;;;5066165;28;20023;-84
2020/12/03 08:00:58;;;;;;;13.23;7.03;;;3.20;99.90;;;;;;5065239;28;20020;-86
2020/12/03 08:03:43;;;;;;;13.55;6.00;;;3.20;99.90;;;;;;5063851;28;20052;-85
2020/12/03 08:06:28;;;;;;;17.90;6.75;;;3.20;99.90;;;;;;5065018;28;20036;-84
2020/12/03 08:08:59;;;;;;;12.27;6.32;;;3.30;99.90;;;;;;5063193;28;20057;-83
2020/12/03 08:11:42;;;;;;;8.35;3.88;;;3.30;99.90;;;;;;5064377;28;20907;-83
2020/12/03 08:14:33;;;;;;;14.48;5.82;;;3.30;99.90;;;;;;5063735;28;20020;-85
2020/12/03 08:17:01;;;;;;;14.73;6.95;;;3.30;99.90;;;;;;5063426;28;20028;-85
2020/12/03 08:19:30;;;;;;;10.95;5.95;;;3.40;99.90;;;;;;5063250;28;20442;-84
2020/12/03 08:21:56;;;;;;;15.57;7.25;;;3.40;99.90;;;;;;5063141;28;20060;-84
2020/12/03 08:24:40;;;;;;;18.73;7.57;;;3.40;99.90;;;;;;5062727;28;20037;-83
2020/12/03 08:27:19;;;;;;;15.25;7.55;;;3.40;99.90;;;;;;5063354;28;20054;-85
2020/12/03 08:29:44;;;;;;;15.95;7.30;;;3.40;99.90;;;;;;5063527;28;20029;-83
2020/12/03 08:32:10;;;;;;;11.35;4.85;;;3.40;99.90;;;;;;5063668;28;20039;-85
2020/12/03 08:34:39;;;;;;;22.50;7.63;;;3.50;99.90;;;;;;5063217;28;20013;-85
2020/12/03 08:37:12;;;;;;;19.92;6.68;;;3.50;99.90;;;;;;5063941;28;20025;-82
2020/12/03 08:39:41;;;;;;;10.93;6.50;;;3.50;99.90;;;;;;5063039;28;20025;-83
2020/12/03 08:42:10;;;;;;;14.82;6.55;;;3.50;99.90;;;;;;5063167;28;20055;-82
2020/12/03 08:44:40;;;;;;;14.77;5.82;;;3.50;99.90;;;;;;5063186;28;20120;-81
2020/12/03 08:47:10;;;;;;;13.10;6.18;;;3.60;99.90;;;;;;5063242;28;20029;-82
2020/12/03 08:49:41;;;;;;;10.77;4.38;;;3.60;99.90;;;;;;5059511;28;20021;-82
2020/12/03 08:52:07;;;;;;;14.88;6.28;;;3.60;99.90;;;;;;5044371;28;20089;-83
2020/12/03 08:54:32;;;;;;;18.42;6.63;;;3.60;99.90;;;;;;5043414;28;20021;-82
2020/12/03 08:57:02;;;;;;;15.07;7.35;;;3.60;99.90;;;;;;5044862;28;20053;-84
2020/12/03 08:59:34;;;;;;;15.73;8.07;;;3.70;99.90;;;;;;5044618;28;20113;-82
2020/12/03 09:02:07;;;;;;;14.05;6.32;;;3.70;99.90;;;;;;5044319;28;20021;-82
2020/12/03 09:04:36;;;;;;;14.13;5.95;;;3.70;99.90;;;;;;5042995;28;20124;-81
2020/12/03 09:07:05;;;;;;;12.25;6.55;;;3.70;99.90;;;;;;5043105;28;20133;-81
2020/12/03 09:09:32;;;;;;;8.65;5.03;;;3.70;99.90;;;;;;5043632;28;20446;-81
2020/12/03 09:11:58;;;;;;;18.52;6.97;;;3.70;99.90;;;;;;5048009;28;20065;-81
2020/12/03 09:14:27;;;;;;;14.65;5.32;;;3.70;99.90;;;;;;5046890;28;20026;-80
2020/12/03 09:17:00;;;;;;;10.60;5.75;;;3.80;99.90;;;;;;5046844;28;20429;-79
2020/12/03 09:19:26;;;;;;;9.82;6.55;;;3.80;99.90;;;;;;5046761;28;20052;-80
2020/12/03 09:21:52;;;;;;;15.80;6.75;;;3.80;99.90;;;;;;5046174;28;20450;-81
2020/12/03 09:24:25;;;;;;;11.90;6.80;;;3.80;99.90;;;;;;5046482;28;20029;-81
2020/12/03 09:26:52;;;;;;;15.57;6.30;;;3.90;99.90;;;;;;5047643;28;20476;-79
2020/12/03 09:29:19;;;;;;;17.70;6.75;;;3.90;99.90;;;;;;5046549;28;20116;-82
2020/12/03 09:31:45;;;;;;;12.52;6.07;;;3.90;99.90;;;;;;5047320;28;20022;-79
2020/12/03 09:34:13;;;;;;;16.52;7.40;;;3.90;99.90;;;;;;5047975;28;20029;-79
2020/12/03 09:36:39;;;;;;;16.77;6.20;;;3.90;99.90;;;;;;5046182;28;20052;-79
2020/12/03 09:39:07;;;;;;;11.05;6.03;;;4.00;99.90;;;;;;5046356;28;20026;-81
2020/12/03 09:41:33;;;;;;;14.32;6.10;;;4.10;99.90;;;;;;5046367;28;20026;-81
2020/12/03 09:44:03;;;;;;;15.75;5.25;;;3.90;99.90;;;;;;5046087;28;20026;-79
2020/12/03 09:46:31;;;;;;;18.38;6.28;;;4.00;99.90;;;;;;5046291;28;20028;-79
2020/12/03 09:48:58;;;;;;;11.02;5.80;;;4.00;99.90;;;;;;5047185;28;20017;-78
2020/12/03 09:51:24;;;;;;;14.93;6.78;;;4.00;99.90;;;;;;5045930;28;20611;-79
2020/12/03 09:53:51;;;;;;;12.38;6.45;;;4.00;99.90;;;;;;5045833;28;20025;-80
2020/12/03 09:56:18;;;;;;;14.10;5.53;;;4.00;99.90;;;;;;5047302;28;20025;-80
2020/12/03 09:58:44;;;;;;;14.70;6.68;;;4.10;99.90;;;;;;5045878;28;20017;-79
2020/12/03 10:01:13;;;;;;;11.80;5.95;;;4.10;99.90;;;;;;5046822;28;20100;-82
2020/12/03 10:03:59;;;;;;;15.93;6.43;;;4.10;99.90;;;;;;5046572;28;20105;-81
2020/12/03 10:06:32;;;;;;;11.77;6.45;;;4.20;99.90;;;;;;5045282;28;20041;-78
2020/12/03 10:09:18;;;;;;;13.75;5.95;;;4.20;99.90;;;;;;5045310;28;20025;-78
2020/12/03 10:12:07;;;;;;;18.10;7.05;;;4.30;99.90;;;;;;5045757;28;20093;-79
2020/12/03 10:15:03;;;;;;;14.68;6.47;;;4.30;99.90;;;;;;5059201;28;20028;-80
2020/12/03 10:17:42;;;;;;;12.45;4.85;;;4.30;99.90;;;;;;5065445;28;20038;-78
2020/12/03 10:20:10;;;;;;;11.82;5.05;;;4.30;99.90;;;;;;5065568;28;20017;-79
2020/12/03 10:22:48;;;;;;;11.00;4.70;;;4.40;99.90;;;;;;5065715;28;20032;-83
2020/12/03 10:25:13;;;;;;;12.38;5.63;;;4.50;99.90;;;;;;5066538;28;20029;-80
2020/12/03 10:28:00;;;;;;;16.05;7.35;;;4.50;99.90;;;;;;5065311;28;20056;-77
2020/12/03 10:30:45;;;;;;;11.10;6.15;;;4.60;99.90;;;;;;5065086;28;20033;-77
2020/12/03 10:33:16;;;;;;;9.35;5.38;;;4.60;99.90;;;;;;5066534;28;20021;-82
2020/12/03 10:35:47;;;;;;;16.90;7.15;;;4.60;99.90;;;;;;5065693;28;20028;-81
2020/12/03 10:38:19;;;;;;;14.07;7.75;;;4.60;99.90;;;;;;5068058;28;20025;-80
2020/12/03 10:40:45;;;;;;;12.75;6.35;;;4.60;99.90;;;;;;5065194;28;20062;-83
2020/12/03 10:43:21;;;;;;;14.88;6.75;;;4.60;99.90;;;;;;5065176;28;20021;-82
2020/12/03 10:45:50;;;;;;;8.98;4.97;;;4.60;99.90;;;;;;5066582;28;20033;-82
2020/12/03 10:48:30;;;;;;;15.60;6.53;;;4.50;99.90;;;;;;5065153;28;20564;-81
2020/12/03 10:51:04;;;;;;;14.38;6.32;;;4.50;99.90;;;;;;5066501;28;20075;-80
2020/12/03 10:53:31;;;;;;;12.55;5.47;;;4.50;99.90;;;;;;5065818;28;20021;-80
2020/12/03 10:56:03;;;;;;;11.35;6.68;;;4.60;99.90;;;;;;5066112;28;20450;-80
2020/12/03 10:58:55;;;;;;;13.55;6.43;;;4.50;99.90;;;;;;5064930;28;20045;-80
2020/12/03 11:01:32;;;;;;;13.10;7.03;;;4.50;99.90;;;;;;5064261;28;20025;-82
2020/12/03 11:04:03;;;;;;;14.77;7.05;;;4.40;99.90;;;;;;5064465;28;20049;-81
2020/12/03 11:06:31;;;;;;;14.70;5.78;;;4.40;99.90;;;;;;5064825;28;20025;-84
2020/12/03 11:08:58;;;;;;;13.98;7.03;;;4.40;99.90;;;;;;5065730;28;20103;-78
2020/12/03 11:11:31;;;;;;;14.95;8.25;;;4.40;99.90;;;;;;5065825;28;20480;-77
2020/12/03 11:13:58;;;;;;;16.58;6.68;;;4.40;99.90;;;;;;5065758;28;20021;-78
2020/12/03 11:16:30;;;;;;;14.38;7.07;;;4.40;99.90;;;;;;5065829;28;20017;-81
2020/12/03 11:18:59;;;;;;;9.13;5.65;;;4.50;99.90;;;;;;5064427;28;20025;-80
2020/12/03 11:21:29;;;;;;;16.73;6.32;;;4.40;99.90;;;;;;5064158;28;20072;-79
2020/12/03 11:23:57;;;;;;;14.25;7.20;;;4.40;99.90;;;;;;5065272;28;20466;-85
2020/12/03 11:26:29;;;;;;;11.02;5.45;;;4.50;99.90;;;;;;5065364;28;20492;-80
2020/12/03 11:29:07;;;;;;;14.10;6.13;;;4.50;99.90;;;;;;5063931;28;20044;-81
2020/12/03 11:31:33;;;;;;;11.52;7.28;;;4.50;99.90;;;;;;5064042;28;20044;-81
2020/12/03 11:33:58;;;;;;;15.68;6.38;;;4.50;99.90;;;;;;5063542;28;20021;-77
2020/12/03 11:36:31;;;;;;;12.45;6.53;;;4.50;99.90;;;;;;5063688;28;20492;-78
2020/12/03 11:38:57;;;;;;;12.13;6.15;;;4.50;99.90;;;;;;5062908;28;20013;-82
2020/12/03 11:49:45;;;;;;;9.43;4.85;;;4.60;99.90;;;;;;5064915;28;20040;-77
2020/12/03 11:52:16;;;;;;;15.90;6.85;;;4.60;99.90;;;;;;5064603;28;20025;-78
2020/12/03 11:54:46;;;;;;;13.57;6.18;;;4.60;99.90;;;;;;5062902;28;20551;-77
2020/12/03 11:57:15;;;;;;;12.07;4.97;;;4.60;99.90;;;;;;5062983;28;20021;-78
2020/12/03 11:59:40;;;;;;;11.57;5.20;;;4.60;99.90;;;;;;5063157;28;20425;-76
2020/12/03 12:02:12;;;;;;;9.23;5.57;;;4.60;99.90;;;;;;5064387;28;20025;-79
2020/12/03 12:04:53;;;;;;;11.38;5.75;;;4.60;99.90;;;;;;5064638;28;20033;-78
2020/12/03 12:12:24;;;;;;;10.70;5.25;;;4.60;99.90;;;;;;5064226;28;20028;-77
2020/12/03 12:14:49;;;;;;;10.35;4.38;;;4.70;99.90;;;;;;5062124;28;20112;-79
2020/12/03 12:17:17;;;;;;;14.55;6.32;;;4.60;99.90;;;;;;5045265;28;20390;-80
2020/12/03 12:19:44;;;;;;;9.85;5.38;;;4.70;99.90;;;;;;5044460;28;20124;-82
2020/12/03 12:22:13;;;;;;;11.63;5.15;;;4.70;99.90;;;;;;5043089;28;20026;-78
2020/12/03 12:24:44;;;;;;;9.27;4.90;;;4.70;99.90;;;;;;5044040;28;20064;-80
2020/12/03 12:27:12;;;;;;;13.25;5.25;;;4.70;99.90;;;;;;5044234;28;20080;-82
2020/12/03 12:29:39;;;;;;;12.93;4.90;;;4.70;99.90;;;;;;5042869;28;20052;-82
2020/12/03 12:32:09;;;;;;;10.35;5.63;;;4.70;99.90;;;;;;5043032;28;20405;-77
2020/12/03 12:34:37;;;;;;;11.40;5.97;;;4.80;99.90;;;;;;5042946;28;20018;-77
2020/12/03 12:37:04;;;;;;;9.80;4.53;;;4.80;99.90;;;;;;5042863;28;20188;-79
2020/12/03 12:39:29;;;;;;;10.60;5.00;;;4.70;99.90;;;;;;5043700;28;20033;-81
2020/12/03 12:42:03;;;;;;;10.45;5.93;;;4.80;99.90;;;;;;5042473;28;20541;-80
2020/12/03 12:44:29;;;;;;;12.55;5.47;;;4.80;99.90;;;;;;5043579;28;20033;-77
2020/12/03 12:47:01;;;;;;;15.32;5.45;;;4.80;99.90;;;;;;5046343;28;20030;-79
2020/12/03 12:49:27;;;;;;;9.32;4.57;;;4.80;99.90;;;;;;5047840;28;20790;-78
2020/12/03 12:51:54;;;;;;;13.35;5.57;;;4.80;99.90;;;;;;5046423;28;20090;-80
2020/12/03 12:54:21;;;;;;;12.38;4.95;;;4.80;99.90;;;;;;5046638;28;20030;-79
2020/12/03 12:56:47;;;;;;;9.00;4.18;;;4.80;99.90;;;;;;5047797;28;20018;-81
2020/12/03 12:59:16;;;;;;;6.30;4.65;;;4.90;99.90;;;;;;5046454;28;20022;-78
2020/12/03 13:01:49;;;;;;;13.85;5.72;;;4.90;99.90;;;;;;5047506;28;20052;-82
2020/12/03 13:04:16;;;;;;;14.80;5.15;;;4.90;99.90;;;;;;5047116;28;20052;-76
2020/12/03 13:06:42;;;;;;;12.75;5.43;;;4.90;99.90;;;;;;5047808;28;20041;-79
2020/12/03 13:09:09;;;;;;;14.32;4.55;;;5.00;99.90;;;;;;5047859;28;20026;-82
2020/12/03 13:11:41;;;;;;;10.43;4.60;;;5.00;99.90;;;;;;5048728;28;20492;-79
2020/12/03 13:14:10;;;;;;;8.55;3.78;;;5.00;99.90;;;;;;5049338;28;20036;-83
2020/12/03 13:16:39;;;;;;;9.55;3.63;;;5.00;99.90;;;;;;5047028;28;20056;-80
2020/12/03 13:19:08;;;;;;;11.35;4.38;;;5.10;99.90;;;;;;5046064;28;20098;-77
2020/12/03 13:21:34;;;;;;;9.55;4.57;;;5.10;99.90;;;;;;5047681;28;20053;-78
2020/12/03 13:24:02;;;;;;;6.30;4.20;;;5.10;99.90;;;;;;5047770;28;20083;-81
2020/12/03 13:26:29;;;;;;;12.18;5.30;;;5.10;99.90;;;;;;5046441;28;20124;-77
2020/12/03 13:28:55;;;;;;;9.45;4.82;;;5.00;99.90;;;;;;5046078;28;20351;-75